createdAt,value
2022-11-26T00:00:25.655Z,5.01
2022-11-26T00:02:54.289Z,4.98
2022-11-26T00:05:22.959Z,4.99
2022-11-26T00:07:55.819Z,4.98
2022-11-26T00:10:30.580Z,4.90
2022-11-26T00:12:58.915Z,4.88
2022-11-26T00:15:28.959Z,4.94
2022-11-26T00:17:57.188Z,4.89
2022-11-26T00:20:28.803Z,4.82
2022-11-26T00:22:58.488Z,4.85
2022-11-26T00:25:29.293Z,4.95
2022-11-26T00:27:58.829Z,4.86
2022-11-26T00:30:27.689Z,4.82
2022-11-26T00:32:56.644Z,4.86
2022-11-26T00:35:24.547Z,4.86
2022-11-26T00:37:53.705Z,4.89
2022-11-26T00:40:24.185Z,4.94
2022-11-26T00:43:00.157Z,4.96
2022-11-26T00:45:31.719Z,4.92
2022-11-26T00:48:01.800Z,4.86
2022-11-26T00:50:33.833Z,4.95
2022-11-26T00:53:02.087Z,4.94
2022-11-26T00:55:32.101Z,4.81
2022-11-26T00:58:02.299Z,4.84
2022-11-26T01:00:32.995Z,4.76
2022-11-26T01:03:04.382Z,4.74
2022-11-26T01:05:37.051Z,4.83
2022-11-26T01:08:19.002Z,4.76
2022-11-26T01:10:47.444Z,4.72
2022-11-26T01:13:17.243Z,4.66
2022-11-26T01:15:44.980Z,4.61
2022-11-26T01:18:18.441Z,4.63
2022-11-26T01:20:50.357Z,4.59
2022-11-26T01:23:19.918Z,4.54
2022-11-26T01:25:51.449Z,4.58
2022-11-26T01:28:20.742Z,4.56
2022-11-26T01:30:49.074Z,4.50
2022-11-26T01:33:19.632Z,4.58
2022-11-26T01:35:47.262Z,4.53
2022-11-26T01:38:15.521Z,4.49
2022-11-26T01:41:01.245Z,4.54
2022-11-26T01:43:33.208Z,4.52
2022-11-26T01:46:00.913Z,4.61
2022-11-26T01:48:31.206Z,4.62
2022-11-26T01:51:03.239Z,4.67
2022-11-26T01:53:40.881Z,4.69
2022-11-26T01:56:16.619Z,4.75
2022-11-26T01:58:48.626Z,4.74
2022-11-26T02:01:16.321Z,4.82
2022-11-26T02:03:51.457Z,4.81
2022-11-26T02:06:23.861Z,4.82
2022-11-26T02:08:51.701Z,4.83
2022-11-26T02:11:22.001Z,4.91
2022-11-26T02:13:53.313Z,4.93
2022-11-26T02:16:26.276Z,4.83
2022-11-26T02:19:06.924Z,4.73
2022-11-26T02:21:36.176Z,4.73
2022-11-26T02:24:32.731Z,4.76
2022-11-26T02:27:59.789Z,4.66
2022-11-26T02:30:29.944Z,4.53
2022-11-26T02:33:00.163Z,4.52
2022-11-26T02:35:33.080Z,4.53
2022-11-26T02:38:04.433Z,4.48
2022-11-26T02:40:32.106Z,4.47
2022-11-26T02:42:59.891Z,4.40
2022-11-26T02:45:31.131Z,4.37
2022-11-26T02:48:00.941Z,4.34
2022-11-26T02:50:30.796Z,4.27
2022-11-26T02:52:59.531Z,4.32
2022-11-26T02:55:29.346Z,4.34
2022-11-26T02:57:57.234Z,4.20
2022-11-26T03:00:25.116Z,4.20
2022-11-26T03:02:57.938Z,4.15
2022-11-26T03:05:25.853Z,4.13
2022-11-26T03:07:55.287Z,4.10
2022-11-26T03:10:26.811Z,4.09
2022-11-26T03:12:55.044Z,4.03
2022-11-26T03:15:22.682Z,4.00
2022-11-26T03:17:51.002Z,4.08
2022-11-26T03:20:20.116Z,3.99
2022-11-26T03:22:47.759Z,3.99
2022-11-26T03:25:15.695Z,3.92
2022-11-26T03:27:43.360Z,3.86
2022-11-26T03:30:11.724Z,3.88
2022-11-26T03:32:39.645Z,3.83
2022-11-26T03:35:08.077Z,3.86
2022-11-26T03:37:37.698Z,3.92
2022-11-26T03:40:06.342Z,4.01
2022-11-26T03:42:33.957Z,4.05
2022-11-26T03:45:01.564Z,4.04
2022-11-26T03:47:29.213Z,4.01
2022-11-26T03:49:56.762Z,3.94
2022-11-26T03:52:24.344Z,4.02
2022-11-26T03:54:53.315Z,3.94
2022-11-26T03:57:22.135Z,3.91
2022-11-26T03:59:49.800Z,3.86
2022-11-26T04:02:17.436Z,3.86
2022-11-26T04:04:45.106Z,3.82
2022-11-26T04:07:12.717Z,3.80
2022-11-26T04:09:40.315Z,3.82
2022-11-26T04:12:09.303Z,3.76
2022-11-26T04:14:37.195Z,3.82
2022-11-26T04:17:05.039Z,3.97
2022-11-26T04:19:32.660Z,4.03
2022-11-26T04:22:00.443Z,4.09
2022-11-26T04:24:28.181Z,4.17
2022-11-26T04:26:55.740Z,4.15
2022-11-26T04:29:24.701Z,4.17
2022-11-26T04:31:52.339Z,4.19
2022-11-26T04:34:19.967Z,4.17
2022-11-26T04:36:47.567Z,4.24
2022-11-26T04:39:15.630Z,4.13
2022-11-26T04:41:43.536Z,4.08
2022-11-26T04:44:11.169Z,4.04
2022-11-26T04:46:40.183Z,4.04
2022-11-26T04:49:07.747Z,3.88
2022-11-26T04:51:35.551Z,3.92
2022-11-26T04:54:05.561Z,3.98
2022-11-26T04:56:35.092Z,3.96
2022-11-26T04:59:02.684Z,3.85
2022-11-26T05:01:30.344Z,3.86
2022-11-26T05:03:59.291Z,3.88
2022-11-26T05:06:26.896Z,3.89
2022-11-26T05:08:54.461Z,3.91
2022-11-26T05:11:22.076Z,3.93
2022-11-26T05:13:49.607Z,3.85
2022-11-26T05:16:17.450Z,3.79
2022-11-26T05:18:45.043Z,3.81
2022-11-26T05:21:13.943Z,3.76
2022-11-26T05:23:41.518Z,3.68
2022-11-26T05:26:09.094Z,3.69
2022-11-26T05:28:36.653Z,3.65
2022-11-26T05:31:05.220Z,3.68
2022-11-26T05:33:32.874Z,3.65
2022-11-26T05:36:00.454Z,3.66
2022-11-26T05:38:29.524Z,3.62
2022-11-26T05:40:57.286Z,3.62
2022-11-26T05:43:24.889Z,3.61
2022-11-26T05:45:52.455Z,3.61
2022-11-26T05:48:20.025Z,3.51
2022-11-26T05:50:51.617Z,3.54
2022-11-26T05:53:21.984Z,3.46
2022-11-26T05:55:50.887Z,3.33
2022-11-26T05:58:18.379Z,3.32
2022-11-26T06:00:46.036Z,3.06
2022-11-26T06:03:19.588Z,3.17
2022-11-26T06:05:47.754Z,3.25
2022-11-26T06:08:15.324Z,3.21
2022-11-26T06:10:43.227Z,3.14
2022-11-26T06:13:12.182Z,3.14
2022-11-26T06:15:39.730Z,3.18
2022-11-26T06:18:07.313Z,3.03
2022-11-26T06:20:35.408Z,3.06
2022-11-26T06:23:03.058Z,3.05
2022-11-26T06:25:30.658Z,3.03
2022-11-26T06:27:58.717Z,3.00
2022-11-26T06:30:27.621Z,2.97
2022-11-26T06:32:55.168Z,2.96
2022-11-26T06:35:22.757Z,2.89
2022-11-26T06:37:50.268Z,2.95
2022-11-26T06:40:19.655Z,2.89
2022-11-26T06:42:50.379Z,2.90
2022-11-26T06:45:18.164Z,2.84
2022-11-26T06:47:48.380Z,2.88
2022-11-26T06:50:16.496Z,2.95
2022-11-26T06:52:44.106Z,3.03
2022-11-26T06:55:11.682Z,2.98
2022-11-26T06:57:39.316Z,2.95
2022-11-26T07:00:08.267Z,2.92
2022-11-26T07:02:35.899Z,2.83
2022-11-26T07:05:05.144Z,2.85
2022-11-26T07:07:32.830Z,2.81
2022-11-26T07:10:00.463Z,3.00
2022-11-26T07:12:28.004Z,2.95
2022-11-26T07:14:55.593Z,2.89
2022-11-26T07:17:23.208Z,2.91
2022-11-26T07:19:50.805Z,2.88
2022-11-26T07:22:19.725Z,2.87
2022-11-26T07:24:47.307Z,2.99
2022-11-26T07:27:14.952Z,2.99
2022-11-26T07:29:42.623Z,2.97
2022-11-26T07:32:10.306Z,2.98
2022-11-26T07:34:38.074Z,3.06
2022-11-26T07:37:05.907Z,3.11
2022-11-26T07:39:34.866Z,3.13
2022-11-26T07:42:02.446Z,3.22
2022-11-26T07:44:30.029Z,3.36
2022-11-26T07:46:57.653Z,3.36
2022-11-26T07:49:25.290Z,3.38
2022-11-26T07:51:52.914Z,3.52
2022-11-26T07:54:20.492Z,3.68
2022-11-26T07:56:49.508Z,4.02
2022-11-26T07:59:17.100Z,4.12
2022-11-26T08:01:44.900Z,4.16
2022-11-26T08:04:12.578Z,4.15
2022-11-26T08:06:42.610Z,4.11
2022-11-26T08:09:11.660Z,4.16
2022-11-26T08:11:39.190Z,4.26
2022-11-26T08:14:10.715Z,4.35
2022-11-26T08:16:38.541Z,4.20
2022-11-26T08:19:08.391Z,4.48
2022-11-26T08:21:36.096Z,4.54
2022-11-26T08:24:04.919Z,4.59
2022-11-26T08:26:36.191Z,4.51
2022-11-26T08:29:06.168Z,4.64
2022-11-26T08:31:37.928Z,4.68
2022-11-26T08:34:08.048Z,4.80
2022-11-26T08:36:35.618Z,4.82
2022-11-26T08:39:03.162Z,4.80
2022-11-26T08:41:30.788Z,4.79
2022-11-26T08:44:07.079Z,4.88
2022-11-26T08:46:37.318Z,4.68
2022-11-26T08:49:05.325Z,4.61
2022-11-26T08:51:34.028Z,4.62
2022-11-26T08:54:01.627Z,4.44
2022-11-26T08:56:29.220Z,4.22
2022-11-26T08:58:56.808Z,4.25
2022-11-26T09:01:26.228Z,4.10
2022-11-26T09:03:56.451Z,4.09
2022-11-26T09:06:25.822Z,4.04
2022-11-26T09:09:10.884Z,3.97
2022-11-26T09:11:40.499Z,3.86
2022-11-26T09:14:08.420Z,3.70
2022-11-26T09:16:36.267Z,3.68
2022-11-26T09:19:06.186Z,3.61
2022-11-26T09:21:34.339Z,3.64
2022-11-26T09:24:02.001Z,3.75
2022-11-26T09:26:31.199Z,3.58
2022-11-26T09:28:58.784Z,3.56
2022-11-26T09:31:26.905Z,3.70
2022-11-26T09:33:56.612Z,3.72
2022-11-26T09:36:25.691Z,3.68
2022-11-26T09:38:55.133Z,3.70
2022-11-26T09:41:39.623Z,3.75
2022-11-26T09:44:20.141Z,3.77
2022-11-26T09:47:10.896Z,3.76
2022-11-26T09:49:45.228Z,3.82
2022-11-26T09:52:17.201Z,3.64
2022-11-26T09:54:45.305Z,3.82
2022-11-26T09:57:21.752Z,3.77
2022-11-26T09:59:50.825Z,3.93
2022-11-26T10:02:18.969Z,3.89
2022-11-26T10:04:48.312Z,4.08
2022-11-26T10:07:32.903Z,4.18
2022-11-26T10:10:06.903Z,4.41
2022-11-26T10:13:10.831Z,4.50
2022-11-26T10:15:38.039Z,4.46
2022-11-26T10:18:12.925Z,4.53
2022-11-26T10:20:50.763Z,4.66
2022-11-26T10:23:24.751Z,4.81
2022-11-26T10:25:54.562Z,4.94
2022-11-26T10:28:26.333Z,4.94
2022-11-26T10:30:58.453Z,5.19
2022-11-26T10:33:28.061Z,5.14
2022-11-26T10:35:55.954Z,5.27
2022-11-26T10:38:25.138Z,5.30
2022-11-26T10:40:52.740Z,5.42
2022-11-26T10:43:23.553Z,5.41
2022-11-26T10:45:52.843Z,5.46
2022-11-26T10:48:24.193Z,5.60
2022-11-26T10:51:03.594Z,5.65
2022-11-26T10:53:52.000Z,5.80
2022-11-26T10:56:21.376Z,5.76
2022-11-26T10:58:50.080Z,5.73
2022-11-26T11:01:18.130Z,5.82
2022-11-26T11:06:39.637Z,5.96
2022-11-26T11:09:27.857Z,5.99
2022-11-26T11:12:16.297Z,6.09
2022-11-26T11:14:45.639Z,6.12
2022-11-26T11:17:34.742Z,5.99
2022-11-26T11:20:22.042Z,6.12
2022-11-26T11:22:58.158Z,6.10
2022-11-26T11:25:30.180Z,6.04
2022-11-26T11:28:02.035Z,6.02
2022-11-26T11:30:32.364Z,5.97
2022-11-26T11:33:11.530Z,6.02
2022-11-26T11:35:39.133Z,5.96
2022-11-26T11:38:22.257Z,6.01
2022-11-26T11:40:51.357Z,5.96
2022-11-26T11:43:22.537Z,5.83
2022-11-26T11:46:05.811Z,5.88
2022-11-26T11:48:43.369Z,5.74
2022-11-26T11:51:15.873Z,5.78
2022-11-26T11:53:52.557Z,5.76
2022-11-26T11:56:26.713Z,5.76
2022-11-26T11:59:01.211Z,5.72
2022-11-26T12:01:39.751Z,5.82
2022-11-26T12:04:26.604Z,5.73
2022-11-26T12:07:23.544Z,5.87
2022-11-26T12:09:55.540Z,5.87
2022-11-26T12:12:26.969Z,5.75
2022-11-26T12:14:58.957Z,5.75
2022-11-26T12:17:33.343Z,5.65
2022-11-26T12:20:04.998Z,5.66
2022-11-26T12:22:37.681Z,5.77
2022-11-26T12:25:08.666Z,5.87
2022-11-26T12:27:41.381Z,5.90
2022-11-26T12:30:15.129Z,5.73
2022-11-26T12:32:47.691Z,5.88
2022-11-26T12:35:17.507Z,5.77
2022-11-26T12:37:46.601Z,5.80
2022-11-26T12:40:27.665Z,5.79
2022-11-26T12:42:59.854Z,5.82
2022-11-26T12:45:38.240Z,5.84
2022-11-26T12:48:15.264Z,5.89
2022-11-26T12:50:47.604Z,5.98
2022-11-26T12:53:20.150Z,5.94
2022-11-26T12:55:51.495Z,5.99
2022-11-26T12:58:23.603Z,6.05
2022-11-26T13:00:54.601Z,6.09
2022-11-26T13:03:27.725Z,6.30
2022-11-26T13:06:01.252Z,6.28
2022-11-26T13:08:37.894Z,6.18
2022-11-26T13:11:15.951Z,6.23
2022-11-26T13:13:53.034Z,6.26
2022-11-26T13:16:24.938Z,6.27
2022-11-26T13:18:55.309Z,6.33
2022-11-26T13:21:32.698Z,6.44
2022-11-26T13:24:17.420Z,6.44
2022-11-26T13:26:55.600Z,6.38
2022-11-26T13:29:44.798Z,6.43
2022-11-26T13:32:32.142Z,6.47
2022-11-26T13:35:12.860Z,6.54
2022-11-26T13:37:49.074Z,6.44
2022-11-26T13:41:16.393Z,6.49
2022-11-26T13:44:21.670Z,6.34
2022-11-26T13:46:52.628Z,6.38
2022-11-26T13:49:24.970Z,6.36
2022-11-26T13:51:55.213Z,6.43
2022-11-26T13:54:25.928Z,6.25
2022-11-26T13:56:59.192Z,6.30
2022-11-26T13:59:28.790Z,6.28
2022-11-26T14:01:58.174Z,6.28
2022-11-26T14:04:54.670Z,6.44
2022-11-26T14:07:22.520Z,6.28
2022-11-26T14:09:53.548Z,6.35
2022-11-26T14:12:22.162Z,6.24
2022-11-26T14:14:50.647Z,6.22
2022-11-26T14:17:21.403Z,6.27
2022-11-26T14:20:06.712Z,6.20
2022-11-26T14:22:35.351Z,6.12
2022-11-26T14:25:05.499Z,6.14
2022-11-26T14:27:34.672Z,6.17
2022-11-26T14:30:17.994Z,6.35
2022-11-26T14:32:52.773Z,6.16
2022-11-26T14:35:29.221Z,6.10
2022-11-26T14:38:01.576Z,6.01
2022-11-26T14:40:31.351Z,6.02
2022-11-26T14:43:16.651Z,6.00
2022-11-26T14:45:45.321Z,5.99
2022-11-26T14:48:24.684Z,5.92
2022-11-26T14:50:52.827Z,6.05
2022-11-26T14:53:20.968Z,5.89
2022-11-26T14:55:49.445Z,6.00
2022-11-26T14:58:19.499Z,5.97
2022-11-26T15:01:02.737Z,5.94
2022-11-26T15:03:31.853Z,5.98
2022-11-26T15:05:59.464Z,5.90
2022-11-26T15:08:28.044Z,5.94
2022-11-26T15:10:57.101Z,5.96
2022-11-26T15:13:28.034Z,5.96
2022-11-26T15:15:56.907Z,5.90
2022-11-26T15:18:28.756Z,5.92
2022-11-26T15:20:58.190Z,5.64
2022-11-26T15:23:28.914Z,5.88
2022-11-26T15:25:56.532Z,5.89
2022-11-26T15:28:24.421Z,5.89
2022-11-26T15:30:57.657Z,5.92
2022-11-26T15:33:25.974Z,5.87
2022-11-26T15:35:57.031Z,5.87
2022-11-26T15:38:27.552Z,5.81
2022-11-26T15:40:57.586Z,5.79
2022-11-26T15:43:28.584Z,5.76
2022-11-26T15:45:59.485Z,5.77
2022-11-26T15:48:50.401Z,5.45
2022-11-26T15:51:23.106Z,5.79
2022-11-26T15:53:52.382Z,5.78
2022-11-26T15:56:20.962Z,5.82
2022-11-26T15:58:50.294Z,5.73
2022-11-26T16:01:20.307Z,5.69
2022-11-26T16:03:50.482Z,5.59
2022-11-26T16:06:28.857Z,5.66
2022-11-26T16:09:03.649Z,5.62
2022-11-26T16:11:34.300Z,5.69
2022-11-26T16:14:23.905Z,5.67
2022-11-26T16:16:52.725Z,5.57
2022-11-26T16:19:22.524Z,5.42
2022-11-26T16:21:51.530Z,5.41
2022-11-26T16:24:30.845Z,5.54
2022-11-26T16:27:00.727Z,5.41
2022-11-26T16:29:29.590Z,5.64
2022-11-26T16:31:57.263Z,5.52
2022-11-26T16:34:26.732Z,5.64
2022-11-26T16:37:01.552Z,5.66
2022-11-26T16:39:33.798Z,5.77
2022-11-26T16:42:09.447Z,5.68
2022-11-26T16:44:37.392Z,5.64
2022-11-26T16:47:05.095Z,5.67
2022-11-26T16:49:32.714Z,5.63
2022-11-26T16:52:00.386Z,5.64
2022-11-26T16:54:27.959Z,5.75
2022-11-26T16:56:56.970Z,5.71
2022-11-26T16:59:27.045Z,5.64
2022-11-26T17:01:54.657Z,5.60
2022-11-26T17:04:22.609Z,5.51
2022-11-26T17:06:50.263Z,5.77
2022-11-26T17:09:18.889Z,5.57
2022-11-26T17:11:46.530Z,5.60
2022-11-26T17:14:15.680Z,5.62
2022-11-26T17:16:43.389Z,5.76
2022-11-26T17:19:13.763Z,5.61
2022-11-26T17:21:41.317Z,5.64
2022-11-26T17:24:09.392Z,5.55
2022-11-26T17:26:37.000Z,5.67
2022-11-26T17:29:04.751Z,5.55
2022-11-26T17:31:33.731Z,5.50
2022-11-26T17:34:01.361Z,5.50
2022-11-26T17:36:35.270Z,5.66
2022-11-26T17:39:04.647Z,5.50
2022-11-26T17:41:32.240Z,5.59
2022-11-26T17:43:59.809Z,5.44
2022-11-26T17:46:27.535Z,5.57
2022-11-26T17:48:59.746Z,5.66
2022-11-26T17:51:27.736Z,5.44
2022-11-26T17:53:55.296Z,5.46
2022-11-26T17:56:24.034Z,5.54
2022-11-26T17:58:51.861Z,5.41
2022-11-26T18:01:20.057Z,5.38
2022-11-26T18:03:48.102Z,5.44
2022-11-26T18:06:18.807Z,5.45
2022-11-26T18:08:46.784Z,5.54
2022-11-26T18:11:15.558Z,5.35
2022-11-26T18:13:43.210Z,5.44
2022-11-26T18:16:10.831Z,5.53
2022-11-26T18:18:38.464Z,5.59
2022-11-26T18:21:06.339Z,5.56
2022-11-26T18:23:35.325Z,5.57
2022-11-26T18:26:03.124Z,5.64
2022-11-26T18:28:30.738Z,5.41
2022-11-26T18:30:59.381Z,5.48
2022-11-26T18:33:27.072Z,5.48
2022-11-26T18:35:54.753Z,5.48
2022-11-26T18:38:22.380Z,5.39
2022-11-26T18:41:00.859Z,5.55
2022-11-26T18:43:28.440Z,5.38
2022-11-26T18:45:56.103Z,5.53
2022-11-26T18:48:23.789Z,5.57
2022-11-26T18:50:56.848Z,5.52
2022-11-26T18:53:24.445Z,5.62
2022-11-26T18:55:52.415Z,5.53
2022-11-26T18:58:21.455Z,5.49
2022-11-26T19:00:50.169Z,5.61
2022-11-26T19:03:18.319Z,5.49
2022-11-26T19:05:46.033Z,5.38
2022-11-26T19:08:14.068Z,5.53
2022-11-26T19:10:41.677Z,5.56
2022-11-26T19:13:09.665Z,5.49
2022-11-26T19:15:43.265Z,5.52
2022-11-26T19:18:11.358Z,5.41
2022-11-26T19:20:39.008Z,5.46
2022-11-26T19:23:06.579Z,5.59
2022-11-26T19:25:34.322Z,5.64
2022-11-26T19:28:04.885Z,5.61
2022-11-26T19:30:33.093Z,5.55
2022-11-26T19:33:02.351Z,5.57
2022-11-26T19:35:30.064Z,5.45
2022-11-26T19:37:57.704Z,5.57
2022-11-26T19:40:25.359Z,5.46
2022-11-26T19:42:52.998Z,5.45
2022-11-26T19:45:20.575Z,5.48
2022-11-26T19:47:48.129Z,5.41
2022-11-26T19:50:17.529Z,5.44
2022-11-26T19:52:47.928Z,5.57
2022-11-26T19:55:15.845Z,5.43
2022-11-26T19:57:43.438Z,5.64
2022-11-26T20:00:13.546Z,5.75
2022-11-26T20:02:41.262Z,5.59
2022-11-26T20:05:10.084Z,5.61
2022-11-26T20:07:39.249Z,5.55
2022-11-26T20:10:08.262Z,5.51
2022-11-26T20:12:35.910Z,5.57
2022-11-26T20:15:03.532Z,5.51
2022-11-26T20:17:31.245Z,5.47
2022-11-26T20:19:58.850Z,5.45
2022-11-26T20:22:28.099Z,5.46
2022-11-26T20:24:57.403Z,5.45
2022-11-26T20:27:24.961Z,5.47
2022-11-26T20:29:52.609Z,5.46
2022-11-26T20:32:20.181Z,5.48
2022-11-26T20:34:47.778Z,5.46
2022-11-26T20:37:15.311Z,5.49
2022-11-26T20:39:43.057Z,5.37
2022-11-26T20:42:15.075Z,5.40
2022-11-26T20:44:42.654Z,5.38
2022-11-26T20:47:10.287Z,5.41
2022-11-26T20:49:42.880Z,5.41
2022-11-26T20:52:10.859Z,5.45
2022-11-26T20:54:38.589Z,5.41
2022-11-26T20:57:06.789Z,5.42
2022-11-26T20:59:35.738Z,5.36
2022-11-26T21:02:03.485Z,5.43
2022-11-26T21:04:31.433Z,5.44
2022-11-26T21:06:58.987Z,5.38
2022-11-26T21:09:26.821Z,5.42
2022-11-26T21:11:54.483Z,5.40
2022-11-26T21:14:22.168Z,5.39
2022-11-26T21:16:51.532Z,5.37
2022-11-26T21:19:19.357Z,5.36
2022-11-26T21:21:47.333Z,5.35
2022-11-26T21:24:14.957Z,5.37
2022-11-26T21:26:42.522Z,5.39
2022-11-26T21:29:10.155Z,5.35
2022-11-26T21:31:38.193Z,5.26
2022-11-26T21:34:08.354Z,5.38
2022-11-26T21:36:37.178Z,5.45
2022-11-26T21:39:05.663Z,5.35
2022-11-26T21:41:34.092Z,5.45
2022-11-26T21:44:03.711Z,5.46
2022-11-26T21:46:37.617Z,5.36
2022-11-26T21:49:07.981Z,5.37
2022-11-26T21:51:35.640Z,5.37
2022-11-26T21:54:03.290Z,5.38
2022-11-26T21:56:31.840Z,5.35
2022-11-26T21:59:00.930Z,5.36
2022-11-26T22:01:30.790Z,5.39
2022-11-26T22:04:00.132Z,5.33
2022-11-26T22:06:29.302Z,5.32
2022-11-26T22:08:57.379Z,5.35
2022-11-26T22:11:26.633Z,5.35
2022-11-26T22:13:54.564Z,5.33
2022-11-26T22:16:24.302Z,5.30
2022-11-26T22:18:52.419Z,5.28
2022-11-26T22:21:22.008Z,5.37
2022-11-26T22:23:51.842Z,5.37
2022-11-26T22:26:19.891Z,5.25
2022-11-26T22:28:47.821Z,5.30
2022-11-26T22:31:18.474Z,5.30
2022-11-26T22:33:46.614Z,5.31
2022-11-26T22:36:14.602Z,5.27
2022-11-26T22:38:43.051Z,5.30
2022-11-26T22:41:14.352Z,5.28
2022-11-26T22:43:42.467Z,5.22
2022-11-26T22:46:12.693Z,5.25
2022-11-26T22:48:40.703Z,5.09
2022-11-26T22:51:09.178Z,5.21
2022-11-26T22:53:37.383Z,5.19
2022-11-26T22:56:05.990Z,5.25
2022-11-26T22:58:35.783Z,5.26
2022-11-26T23:01:05.612Z,5.23
2022-11-26T23:03:34.919Z,5.29
2022-11-26T23:06:04.595Z,5.30
2022-11-26T23:08:32.399Z,5.26
2022-11-26T23:11:00.097Z,5.30
2022-11-26T23:13:27.762Z,5.40
2022-11-26T23:15:57.012Z,5.38
2022-11-26T23:18:25.028Z,5.41
2022-11-26T23:20:52.607Z,5.37
2022-11-26T23:23:20.198Z,5.37
2022-11-26T23:25:47.864Z,5.24
2022-11-26T23:28:15.523Z,5.28
2022-11-26T23:30:43.204Z,5.31
2022-11-26T23:33:12.129Z,5.30
2022-11-26T23:35:39.803Z,5.37
2022-11-26T23:38:07.462Z,5.28
2022-11-26T23:40:35.623Z,5.29
2022-11-26T23:43:08.420Z,5.27
2022-11-26T23:45:37.072Z,5.21
2022-11-26T23:48:05.398Z,5.32
2022-11-26T23:50:35.104Z,5.27
2022-11-26T23:53:03.355Z,5.26
2022-11-26T23:55:34.915Z,5.22
2022-11-26T23:58:03.115Z,5.10
